createdAt,value
2023-01-28T00:01:22.477Z,7.75
2023-01-28T00:03:51.485Z,7.97
2023-01-28T00:06:19.143Z,9.93
2023-01-28T00:08:45.853Z,8.60
2023-01-28T00:11:13.530Z,9.95
2023-01-28T00:13:40.408Z,12.05
2023-01-28T00:16:10.981Z,8.20
2023-01-28T00:18:37.765Z,11.77
2023-01-28T00:21:10.891Z,13.98
2023-01-28T00:23:39.440Z,13.40
2023-01-28T00:26:11.857Z,10.68
2023-01-28T00:28:38.452Z,9.07
2023-01-28T00:31:28.721Z,8.13
2023-01-28T00:33:56.826Z,11.95
2023-01-28T00:36:25.420Z,8.20
2023-01-28T00:38:56.936Z,12.93
2023-01-28T00:41:26.082Z,11.02
2023-01-28T00:43:53.431Z,11.13
2023-01-28T00:46:21.579Z,10.95
2023-01-28T00:48:48.825Z,10.52
2023-01-28T00:51:17.319Z,10.75
2023-01-28T00:53:44.508Z,11.32
2023-01-28T00:56:14.038Z,7.88
2023-01-28T00:58:41.307Z,8.15
2023-01-28T01:01:13.049Z,8.80
2023-01-28T01:03:40.141Z,9.45
2023-01-28T01:06:07.937Z,6.32
2023-01-28T01:08:40.214Z,9.25
2023-01-28T01:11:07.905Z,8.70
2023-01-28T01:13:37.739Z,8.20
2023-01-28T01:16:09.222Z,8.05
2023-01-28T01:18:37.341Z,9.30
2023-01-28T01:21:08.596Z,7.68
2023-01-28T01:23:35.239Z,9.52
2023-01-28T01:26:01.942Z,10.50
2023-01-28T01:28:28.600Z,11.68
2023-01-28T01:31:07.681Z,10.95
2023-01-28T01:33:34.821Z,7.97
2023-01-28T01:36:01.751Z,6.85
2023-01-28T01:38:29.173Z,9.57
2023-01-28T01:41:00.164Z,13.43
2023-01-28T01:43:50.615Z,12.20
2023-01-28T01:46:57.870Z,12.00
2023-01-28T01:49:27.250Z,12.13
2023-01-28T01:52:09.359Z,11.48
2023-01-28T01:54:38.620Z,14.05
2023-01-28T01:57:10.043Z,12.52
2023-01-28T01:59:37.996Z,12.60
2023-01-28T02:02:07.978Z,12.68
2023-01-28T02:04:39.541Z,13.32
2023-01-28T02:07:08.697Z,11.93
2023-01-28T02:09:37.483Z,11.43
2023-01-28T02:12:33.185Z,9.13
2023-01-28T02:15:07.217Z,9.20
2023-01-28T02:17:34.714Z,11.60
2023-01-28T02:20:05.812Z,11.93
2023-01-28T02:23:04.636Z,11.40
2023-01-28T02:25:54.414Z,14.35
2023-01-28T02:28:48.701Z,11.45
2023-01-28T02:31:27.353Z,12.82
2023-01-28T02:34:05.152Z,14.90
2023-01-28T02:37:07.061Z,14.75
2023-01-28T02:39:39.055Z,12.63
2023-01-28T02:42:09.955Z,12.52
2023-01-28T02:44:36.597Z,14.10
2023-01-28T02:47:21.968Z,14.60
2023-01-28T02:49:52.002Z,13.05
2023-01-28T02:52:49.352Z,13.18
2023-01-28T02:55:37.568Z,14.00
2023-01-28T02:58:18.756Z,13.77
2023-01-28T03:01:01.866Z,13.93
2023-01-28T03:03:40.154Z,13.80
2023-01-28T03:06:12.206Z,13.05
2023-01-28T03:09:10.696Z,12.32
2023-01-28T03:12:01.098Z,12.40
2023-01-28T03:14:48.891Z,15.00
2023-01-28T03:17:43.687Z,12.57
2023-01-28T03:20:29.796Z,7.80
2023-01-28T03:23:20.306Z,8.00
2023-01-28T03:26:07.773Z,9.75
2023-01-28T03:28:56.632Z,10.75
2023-01-28T03:31:43.463Z,13.80
2023-01-28T03:34:30.179Z,9.98
2023-01-28T03:36:57.217Z,13.65
2023-01-28T03:39:29.121Z,15.43
2023-01-28T03:42:05.428Z,12.93
2023-01-28T03:44:53.678Z,12.95
2023-01-28T03:47:24.575Z,11.68
2023-01-28T03:49:53.196Z,16.25
2023-01-28T03:52:30.020Z,12.18
2023-01-28T03:54:56.960Z,14.30
2023-01-28T03:57:26.816Z,9.20
2023-01-28T03:59:54.159Z,14.40
2023-01-28T04:02:23.218Z,12.57
2023-01-28T04:04:50.479Z,8.25
2023-01-28T04:07:17.558Z,14.57
2023-01-28T04:09:44.622Z,13.05
2023-01-28T04:12:11.449Z,8.43
2023-01-28T04:14:40.250Z,12.70
2023-01-28T04:17:10.661Z,15.98
2023-01-28T04:19:38.379Z,13.60
2023-01-28T04:22:07.197Z,16.10
2023-01-28T04:24:34.001Z,14.23
2023-01-28T04:27:00.629Z,7.95
2023-01-28T04:29:27.397Z,8.40
2023-01-28T04:31:54.140Z,9.75
2023-01-28T04:34:20.798Z,8.10
2023-01-28T04:36:47.403Z,8.65
2023-01-28T04:39:14.264Z,9.18
2023-01-28T04:41:40.901Z,7.88
2023-01-28T04:44:07.558Z,10.60
2023-01-28T04:46:34.249Z,7.60
2023-01-28T04:49:02.151Z,9.15
2023-01-28T04:51:28.982Z,8.13
2023-01-28T04:53:55.635Z,9.05
2023-01-28T04:56:25.409Z,8.38
2023-01-28T04:58:52.263Z,8.23
2023-01-28T05:01:19.160Z,8.48
2023-01-28T05:03:45.806Z,8.88
2023-01-28T05:06:12.461Z,14.05
2023-01-28T05:08:39.136Z,9.20
2023-01-28T05:11:05.825Z,11.52
2023-01-28T05:13:32.698Z,15.40
2023-01-28T05:15:59.344Z,13.23
2023-01-28T05:18:26.070Z,10.70
2023-01-28T05:20:52.749Z,8.82
2023-01-28T05:23:19.427Z,9.32
2023-01-28T05:25:46.677Z,8.00
2023-01-28T05:28:13.343Z,8.27
2023-01-28T05:30:40.087Z,12.02
2023-01-28T05:33:06.792Z,11.95
2023-01-28T05:35:33.663Z,12.35
2023-01-28T05:38:00.435Z,8.10
2023-01-28T05:40:27.087Z,10.20
2023-01-28T05:42:53.816Z,9.18
2023-01-28T05:45:20.729Z,11.68
2023-01-28T05:47:47.447Z,15.13
2023-01-28T05:50:15.705Z,14.52
2023-01-28T05:52:42.524Z,14.63
2023-01-28T05:55:09.654Z,14.63
2023-01-28T05:57:37.685Z,16.00
2023-01-28T06:00:05.716Z,11.45
2023-01-28T06:02:32.555Z,15.63
2023-01-28T06:04:59.848Z,13.82
2023-01-28T06:07:26.606Z,16.33
2023-01-28T06:09:53.235Z,17.88
2023-01-28T06:12:19.871Z,16.83
2023-01-28T06:14:46.488Z,10.73
2023-01-28T06:17:13.090Z,8.80
2023-01-28T06:19:39.729Z,9.35
2023-01-28T06:22:06.496Z,7.75
2023-01-28T06:24:33.170Z,8.50
2023-01-28T06:26:59.756Z,10.07
2023-01-28T06:29:26.549Z,9.50
2023-01-28T06:31:53.471Z,9.55
2023-01-28T06:34:20.369Z,10.52
2023-01-28T06:36:47.061Z,11.57
2023-01-28T06:39:13.693Z,13.93
2023-01-28T06:41:40.342Z,9.95
2023-01-28T06:44:07.413Z,8.55
2023-01-28T06:46:34.105Z,11.13
2023-01-28T06:49:00.829Z,9.93
2023-01-28T06:51:27.452Z,18.73
2023-01-28T06:53:54.082Z,11.70
2023-01-28T06:56:20.848Z,10.45
2023-01-28T06:58:47.424Z,10.40
2023-01-28T07:01:14.121Z,16.27
2023-01-28T07:03:40.744Z,10.90
2023-01-28T07:06:07.627Z,12.73
2023-01-28T07:08:34.446Z,15.50
2023-01-28T07:11:01.225Z,16.20
2023-01-28T07:13:27.817Z,9.68
2023-01-28T07:15:54.519Z,9.15
2023-01-28T07:18:21.339Z,9.85
2023-01-28T07:20:48.095Z,9.63
2023-01-28T07:23:15.035Z,9.00
2023-01-28T07:25:41.663Z,9.25
2023-01-28T07:28:08.617Z,10.02
2023-01-28T07:30:35.350Z,11.57
2023-01-28T07:33:02.226Z,9.55
2023-01-28T07:35:29.740Z,9.38
2023-01-28T07:37:58.705Z,10.45
2023-01-28T07:40:26.383Z,10.13
2023-01-28T07:42:55.454Z,10.45
2023-01-28T07:45:23.567Z,9.98
2023-01-28T07:48:11.418Z,9.27
2023-01-28T07:50:38.509Z,10.45
2023-01-28T07:53:07.490Z,10.50
2023-01-28T07:55:36.056Z,14.75
2023-01-28T07:58:04.308Z,9.77
2023-01-28T08:00:34.294Z,10.82
2023-01-28T08:03:03.417Z,10.27
2023-01-28T08:05:41.108Z,16.65
2023-01-28T08:08:09.396Z,10.55
2023-01-28T08:10:36.663Z,9.48
2023-01-28T08:13:03.629Z,12.45
2023-01-28T08:15:32.781Z,10.70
2023-01-28T08:18:01.123Z,9.85
2023-01-28T08:20:29.013Z,11.18
2023-01-28T08:23:13.982Z,12.13
2023-01-28T08:25:40.840Z,14.25
2023-01-28T08:28:08.489Z,14.38
2023-01-28T08:30:37.879Z,12.45
2023-01-28T08:33:06.675Z,11.35
2023-01-28T08:35:34.385Z,19.85
2023-01-28T08:38:02.751Z,19.65
2023-01-28T08:40:30.073Z,21.63
2023-01-28T08:42:57.304Z,15.75
2023-01-28T08:45:27.808Z,14.60
2023-01-28T08:48:03.387Z,17.17
2023-01-28T08:50:33.357Z,16.73
2023-01-28T08:53:05.519Z,21.90
2023-01-28T08:55:33.960Z,21.52
2023-01-28T08:58:05.666Z,19.08
2023-01-28T09:00:33.526Z,17.33
2023-01-28T09:03:00.315Z,17.75
2023-01-28T09:05:27.050Z,15.07
2023-01-28T09:07:53.784Z,20.80
2023-01-28T09:10:23.377Z,18.40
2023-01-28T09:12:50.057Z,17.42
2023-01-28T09:15:17.812Z,18.17
2023-01-28T09:17:44.704Z,18.80
2023-01-28T09:20:13.105Z,17.20
2023-01-28T09:22:40.380Z,14.95
2023-01-28T09:25:07.854Z,15.73
2023-01-28T09:27:34.582Z,15.98
2023-01-28T09:30:01.275Z,17.38
2023-01-28T09:32:27.953Z,16.25
2023-01-28T09:34:54.604Z,17.77
2023-01-28T09:37:21.237Z,20.92
2023-01-28T09:39:48.409Z,17.02
2023-01-28T09:42:27.057Z,17.20
2023-01-28T09:45:08.892Z,18.75
2023-01-28T09:47:49.467Z,19.85
2023-01-28T09:50:23.725Z,20.25
2023-01-28T09:52:54.461Z,18.23
2023-01-28T09:55:29.955Z,18.45
2023-01-28T09:57:57.412Z,18.02
2023-01-28T10:00:39.074Z,20.60
2023-01-28T10:03:51.754Z,17.83
2023-01-28T10:06:55.778Z,17.00
2023-01-28T10:10:00.723Z,16.90
2023-01-28T10:12:59.700Z,16.08
2023-01-28T10:15:45.468Z,17.40
2023-01-28T10:18:18.389Z,18.05
2023-01-28T10:20:56.208Z,15.07
2023-01-28T10:23:49.158Z,16.95
2023-01-28T10:26:30.723Z,14.45
2023-01-28T10:29:01.134Z,14.20
2023-01-28T10:31:35.389Z,14.10
2023-01-28T10:34:04.530Z,14.25
2023-01-28T10:36:31.474Z,15.40
2023-01-28T10:38:58.690Z,11.35
2023-01-28T10:41:26.885Z,13.65
2023-01-28T10:43:53.708Z,13.80
2023-01-28T10:46:35.515Z,14.55
2023-01-28T10:49:18.802Z,13.93
2023-01-28T10:51:45.533Z,12.77
2023-01-28T10:54:30.118Z,15.73
2023-01-28T10:57:03.194Z,16.10
2023-01-28T10:59:32.082Z,12.50
2023-01-28T11:02:03.787Z,12.25
2023-01-28T11:04:35.693Z,14.02
2023-01-28T11:07:16.390Z,15.05
2023-01-28T11:09:49.604Z,11.38
2023-01-28T11:12:27.895Z,13.50
2023-01-28T11:15:05.908Z,14.02
2023-01-28T11:17:38.043Z,15.88
2023-01-28T11:20:21.554Z,12.07
2023-01-28T11:22:49.264Z,16.38
2023-01-28T11:25:30.249Z,14.50
2023-01-28T11:27:58.279Z,12.23
2023-01-28T11:30:33.334Z,12.82
2023-01-28T11:33:18.131Z,14.27
2023-01-28T11:36:14.664Z,12.88
2023-01-28T11:38:50.914Z,13.90
2023-01-28T11:41:19.454Z,13.18
2023-01-28T11:43:46.114Z,11.43
2023-01-28T11:46:18.772Z,14.50
2023-01-28T11:49:10.009Z,14.07
2023-01-28T11:52:24.236Z,16.35
2023-01-28T11:54:57.004Z,16.98
2023-01-28T11:57:34.188Z,13.63
2023-01-28T12:00:49.641Z,10.35
2023-01-28T12:03:42.401Z,12.45
2023-01-28T12:06:17.819Z,12.77
2023-01-28T12:08:53.276Z,10.13
2023-01-28T12:12:00.100Z,12.07
2023-01-28T12:14:55.016Z,13.85
2023-01-28T12:17:33.696Z,12.95
2023-01-28T12:20:28.228Z,14.95
2023-01-28T12:23:13.248Z,13.20
2023-01-28T12:25:55.808Z,8.73
2023-01-28T12:28:53.323Z,11.93
2023-01-28T12:31:41.826Z,12.70
2023-01-28T12:34:33.121Z,12.95
2023-01-28T12:37:11.505Z,13.45
2023-01-28T12:40:07.226Z,9.13
2023-01-28T12:43:02.240Z,11.02
2023-01-28T12:45:49.942Z,11.43
2023-01-28T12:48:22.116Z,10.68
2023-01-28T12:50:59.002Z,11.63
2023-01-28T12:53:46.382Z,13.85
2023-01-28T12:56:25.839Z,10.57
2023-01-28T12:58:58.825Z,10.43
2023-01-28T13:01:32.685Z,7.97
2023-01-28T13:04:09.944Z,8.40
2023-01-28T13:06:52.357Z,8.35
2023-01-28T13:09:25.495Z,7.40
2023-01-28T13:11:54.664Z,8.60
2023-01-28T13:14:27.905Z,9.32
2023-01-28T13:16:54.666Z,14.15
2023-01-28T13:19:35.962Z,13.23
2023-01-28T13:22:24.698Z,11.27
2023-01-28T13:24:51.395Z,13.02
2023-01-28T13:27:28.935Z,7.75
2023-01-28T13:30:22.461Z,10.77
2023-01-28T13:32:56.758Z,8.55
2023-01-28T13:35:41.898Z,8.75
2023-01-28T13:38:19.859Z,9.95
2023-01-28T13:41:01.143Z,7.50
2023-01-28T13:43:46.091Z,8.75
2023-01-28T13:48:54.908Z,8.73
2023-01-28T13:51:24.077Z,8.40
2023-01-28T13:54:09.810Z,8.85
2023-01-28T13:57:02.215Z,7.80
2023-01-28T13:59:57.717Z,8.20
2023-01-28T14:02:48.771Z,9.27
2023-01-28T14:05:28.567Z,8.30
2023-01-28T14:08:26.375Z,7.43
2023-01-28T14:11:09.439Z,8.23
2023-01-28T14:13:36.182Z,9.35
2023-01-28T14:16:20.044Z,7.32
2023-01-28T14:18:48.642Z,11.60
2023-01-28T14:21:22.588Z,6.97
2023-01-28T14:23:54.376Z,6.82
2023-01-28T14:26:46.539Z,7.68
2023-01-28T14:29:19.687Z,7.78
2023-01-28T14:31:47.814Z,7.18
2023-01-28T14:34:22.355Z,6.88
2023-01-28T14:36:50.208Z,7.85
2023-01-28T14:39:26.437Z,8.20
2023-01-28T14:41:56.540Z,7.90
2023-01-28T14:44:32.738Z,8.02
2023-01-28T14:47:40.393Z,6.55
2023-01-28T14:50:37.772Z,6.60
2023-01-28T14:53:51.760Z,10.23
2023-01-28T14:56:30.508Z,7.50
2023-01-28T15:01:31.314Z,6.95
2023-01-28T15:03:58.343Z,6.15
2023-01-28T15:06:30.477Z,7.85
2023-01-28T15:09:07.577Z,6.35
2023-01-28T15:11:39.671Z,5.63
2023-01-28T15:14:22.640Z,7.97
2023-01-28T15:16:50.637Z,8.48
2023-01-28T15:19:22.532Z,6.35
2023-01-28T15:21:49.707Z,6.00
2023-01-28T15:24:18.666Z,5.50
2023-01-28T15:26:47.681Z,6.95
2023-01-28T15:29:30.603Z,7.55
2023-01-28T15:31:57.765Z,8.30
2023-01-28T15:34:30.238Z,7.18
2023-01-28T15:36:58.598Z,5.97
2023-01-28T15:39:27.511Z,7.90
2023-01-28T15:41:59.243Z,7.38
2023-01-28T15:44:33.043Z,8.07
2023-01-28T15:47:01.601Z,6.20
2023-01-28T15:49:32.884Z,6.75
2023-01-28T15:52:00.047Z,5.90
2023-01-28T15:54:27.780Z,5.93
2023-01-28T15:56:54.412Z,9.68
2023-01-28T15:59:31.277Z,5.72
2023-01-28T16:02:23.680Z,7.95
2023-01-28T16:05:01.961Z,6.53
2023-01-28T16:07:33.606Z,7.40
2023-01-28T16:10:02.580Z,6.65
2023-01-28T16:12:29.685Z,7.93
2023-01-28T16:14:58.799Z,7.30
2023-01-28T16:17:29.709Z,6.85
2023-01-28T16:20:02.799Z,5.82
2023-01-28T16:22:39.177Z,4.20
2023-01-28T16:25:21.067Z,4.20
2023-01-28T16:27:48.472Z,5.97
2023-01-28T16:30:16.340Z,5.88
2023-01-28T16:32:43.676Z,5.13
2023-01-28T16:35:47.350Z,7.55
2023-01-28T16:38:17.433Z,6.38
2023-01-28T16:40:45.929Z,8.20
2023-01-28T16:43:14.500Z,7.25
2023-01-28T16:45:44.621Z,7.32
2023-01-28T16:48:11.296Z,7.53
2023-01-28T16:50:40.327Z,6.57
2023-01-28T16:53:20.882Z,6.13
2023-01-28T16:55:50.813Z,4.53
2023-01-28T16:58:22.172Z,5.22
2023-01-28T17:00:48.883Z,4.85
2023-01-28T17:03:15.485Z,6.63
2023-01-28T17:05:42.155Z,7.80
2023-01-28T17:08:09.135Z,4.22
2023-01-28T17:10:35.794Z,5.20
2023-01-28T17:13:02.522Z,6.05
2023-01-28T17:15:29.182Z,6.72
2023-01-28T17:17:55.932Z,5.55
2023-01-28T17:20:22.771Z,5.85
2023-01-28T17:22:49.604Z,6.82
2023-01-28T17:25:16.976Z,5.97
2023-01-28T17:27:44.063Z,7.15
2023-01-28T17:30:11.325Z,6.65
2023-01-28T17:32:37.946Z,8.52
2023-01-28T17:35:05.009Z,8.88
2023-01-28T17:37:31.682Z,7.07
2023-01-28T17:39:58.274Z,8.70
2023-01-28T17:42:27.310Z,7.00
2023-01-28T17:44:54.233Z,6.65
2023-01-28T17:47:21.175Z,8.02
2023-01-28T17:49:47.790Z,6.88
2023-01-28T17:52:14.422Z,8.00
2023-01-28T17:54:41.127Z,8.93
2023-01-28T17:57:07.758Z,9.32
2023-01-28T17:59:34.412Z,8.45
2023-01-28T18:02:01.143Z,8.90
2023-01-28T18:04:27.871Z,8.15
2023-01-28T18:06:54.594Z,7.03
2023-01-28T18:09:21.396Z,8.98
2023-01-28T18:11:48.176Z,7.60
2023-01-28T18:14:15.046Z,8.32
2023-01-28T18:16:41.848Z,8.30
2023-01-28T18:19:10.305Z,7.50
2023-01-28T18:21:52.337Z,8.45
2023-01-28T18:24:21.203Z,10.15
2023-01-28T18:26:47.945Z,7.85
2023-01-28T18:29:17.153Z,6.45
2023-01-28T18:31:44.291Z,7.45
2023-01-28T18:34:11.165Z,7.72
2023-01-28T18:36:37.885Z,8.20
2023-01-28T18:39:04.685Z,7.63
2023-01-28T18:41:31.401Z,8.23
2023-01-28T18:43:58.109Z,12.50
2023-01-28T18:46:24.783Z,8.57
2023-01-28T18:48:52.066Z,8.48
2023-01-28T18:51:29.539Z,7.63
2023-01-28T18:54:01.378Z,6.63
2023-01-28T18:56:29.233Z,6.97
2023-01-28T18:58:57.830Z,8.40
2023-01-28T19:01:24.472Z,8.85
2023-01-28T19:03:51.279Z,16.40
2023-01-28T19:06:17.963Z,22.42
2023-01-28T19:08:44.550Z,10.70
2023-01-28T19:11:11.317Z,10.75
2023-01-28T19:13:38.169Z,9.43
2023-01-28T19:16:05.410Z,9.40
2023-01-28T19:18:32.242Z,9.05
2023-01-28T19:21:04.215Z,10.57
2023-01-28T19:23:47.992Z,10.10
2023-01-28T19:26:21.087Z,9.75
2023-01-28T19:28:49.489Z,11.50
2023-01-28T19:31:19.007Z,10.27
2023-01-28T19:33:46.494Z,9.10
2023-01-28T19:36:13.824Z,11.30
2023-01-28T19:38:41.343Z,10.70
2023-01-28T19:41:08.346Z,12.98
2023-01-28T19:43:35.546Z,10.38
2023-01-28T19:46:04.947Z,11.82
2023-01-28T19:48:33.046Z,10.35
2023-01-28T19:51:07.400Z,10.57
2023-01-28T19:53:37.052Z,12.32
2023-01-28T19:56:06.428Z,11.45
2023-01-28T19:58:34.841Z,9.80
2023-01-28T20:01:28.534Z,17.40
2023-01-28T20:03:59.311Z,11.75
2023-01-28T20:06:28.435Z,9.25
2023-01-28T20:08:59.213Z,12.65
2023-01-28T20:11:25.931Z,11.63
2023-01-28T20:13:53.081Z,10.13
2023-01-28T20:16:23.185Z,10.00
2023-01-28T20:18:50.948Z,13.98
2023-01-28T20:21:21.304Z,14.63
2023-01-28T20:23:49.555Z,10.75
2023-01-28T20:26:16.793Z,15.27
2023-01-28T20:28:43.501Z,15.98
2023-01-28T20:31:11.333Z,11.02
2023-01-28T20:33:38.791Z,10.60
2023-01-28T20:36:10.663Z,16.10
2023-01-28T20:38:39.296Z,21.42
2023-01-28T20:41:08.127Z,15.48
2023-01-28T20:43:39.141Z,25.95
2023-01-28T20:46:12.748Z,22.10
2023-01-28T20:48:39.483Z,18.55
2023-01-28T20:51:11.380Z,12.15
2023-01-28T20:53:38.468Z,22.15
2023-01-28T20:56:08.740Z,10.80
2023-01-28T20:58:35.379Z,14.73
2023-01-28T21:01:02.455Z,12.13
2023-01-28T21:03:29.149Z,20.13
2023-01-28T21:05:55.893Z,18.02
2023-01-28T21:08:22.497Z,20.45
2023-01-28T21:10:49.290Z,12.07
2023-01-28T21:13:16.711Z,11.57
2023-01-28T21:15:54.280Z,25.45
2023-01-28T21:18:21.584Z,15.05
2023-01-28T21:20:48.606Z,18.45
2023-01-28T21:23:15.878Z,22.33
2023-01-28T21:25:44.188Z,15.25
2023-01-28T21:28:11.551Z,13.60
2023-01-28T21:30:38.980Z,14.95
2023-01-28T21:33:06.310Z,27.02
2023-01-28T21:35:37.579Z,17.70
2023-01-28T21:38:04.950Z,17.70
2023-01-28T21:40:32.870Z,20.98
2023-01-28T21:42:59.834Z,21.95
2023-01-28T21:45:26.443Z,17.92
2023-01-28T21:47:54.263Z,15.77
2023-01-28T21:50:21.877Z,17.73
2023-01-28T21:52:49.778Z,12.27
2023-01-28T21:55:17.108Z,17.95
2023-01-28T21:57:43.906Z,13.55
2023-01-28T22:00:11.857Z,17.15
2023-01-28T22:02:38.874Z,14.70
2023-01-28T22:05:06.101Z,18.42
2023-01-28T22:07:32.786Z,18.75
2023-01-28T22:09:59.487Z,18.77
2023-01-28T22:12:27.573Z,14.98
2023-01-28T22:14:54.312Z,18.92
2023-01-28T22:17:21.045Z,15.10
2023-01-28T22:19:48.335Z,15.05
2023-01-28T22:22:16.252Z,15.18
2023-01-28T22:24:42.956Z,18.15
2023-01-28T22:27:09.718Z,15.75
2023-01-28T22:29:36.377Z,16.38
2023-01-28T22:32:04.855Z,19.13
2023-01-28T22:34:31.772Z,11.63
2023-01-28T22:36:58.394Z,15.35
2023-01-28T22:39:25.168Z,17.83
2023-01-28T22:41:51.916Z,15.43
2023-01-28T22:44:20.027Z,16.17
2023-01-28T22:46:47.545Z,15.32
2023-01-28T22:49:15.187Z,16.17
2023-01-28T22:51:42.684Z,15.68
2023-01-28T22:54:11.414Z,16.23
2023-01-28T22:56:38.491Z,15.18
2023-01-28T22:59:05.154Z,14.85
2023-01-28T23:01:32.649Z,12.68
2023-01-28T23:03:59.488Z,12.98
2023-01-28T23:06:27.515Z,15.45
2023-01-28T23:08:54.670Z,14.85
2023-01-28T23:11:28.177Z,15.90
2023-01-28T23:14:17.500Z,18.33
2023-01-28T23:17:02.716Z,14.10
2023-01-28T23:19:48.161Z,14.25
2023-01-28T23:22:48.665Z,13.45
2023-01-28T23:25:15.674Z,14.23
2023-01-28T23:27:43.502Z,12.75
2023-01-28T23:30:12.952Z,13.07
2023-01-28T23:32:46.944Z,15.93
2023-01-28T23:35:14.149Z,11.35
2023-01-28T23:37:41.607Z,12.63
2023-01-28T23:40:08.808Z,12.45
2023-01-28T23:42:35.501Z,11.27
2023-01-28T23:45:02.212Z,11.15
2023-01-28T23:47:28.923Z,12.95
2023-01-28T23:49:55.654Z,15.65
2023-01-28T23:52:23.472Z,12.35
2023-01-28T23:54:50.078Z,12.48
2023-01-28T23:57:16.842Z,15.82
2023-01-28T23:59:43.535Z,14.07
